Ana Sayfa
METAR-TAF:

METAR-TAF

Havaalanları :

Goldsboro, Kuzey Carolina, Amerika Birleşik Devletleri

Enlem: 35-27-38N, Boylam: 077-57-54W, yükseklik: 40 m

Güncel hava durumu gözlemi

Rapor saat 05:55 UTC de 19 dakika önce yapıldı.
Rüzgar batı/güneybatıdan 24 kt ve 38 kt'a kadar ani rüzgarlar
Sıcaklık 15°C
Nem 100%
Basınç 1007 hPa
Görüş mesafesi: 6.4 km
1300 ft yükseklikte parçalı bulutlu
2100 ft yükseklikte parçalı çok bulutlu
4000 ft yükseklikte çok bulutlu
hafif yağmur

METAR: KGWW 050555Z AUTO 25024G38KT 4SM -RA SCT013 BKN021 OVC040 15/15 A2973 RMK AO2 P0008 60028 T01540147 10167 20153 402020006

Saat: 01:14 (06:14 UTC)


TAF: eksik

4.000'den fazla havaalanı için hava durumu gözlemleri ve tahminleri (METAR ve TAF raporları).

Kullanılabilir istasyonlar harita üzerinde sarı ve kırmızı noktalarla gösterilir.

İstasyonun adını görmek için fareyi noktanın üzerinde gezdirin.

Sonrasında hava gözlem ve tahminlerini görmek için tıklayın.

Haritayı değiştirmek için: yaklaştırmak için siyah artı işaretli yeşil düğmeye ve uzaklaştırmak için de eksi işaretli düğmeye hızla tıklayın; bitişik haritalar için yeşil okları kullanın.


METAR-TAF: